This is the latest recevied weather packets stored in our database for station/object K5KHP. If no packets are shown the sender has not sent any weather packets the latest 10 day(s).
| Time | Temp. | Humidity | Pressure | Rain* | Wind** | Luminosity | Snow |
|---|---|---|---|---|---|---|---|
| 1777660970 | 20.56° C | 70% | 1014.1 hPa | 0 mm | - | 686 W/m² | - |
| 1777660667 | 20.56° C | 71% | 1013.9 hPa | 0 mm | - | 683 W/m² | - |
| 1777660364 | 21.11° C | 69% | 1013.9 hPa | 0 mm | - | 651 W/m² | - |
| 1777660060 | 20.56° C | 70% | 1014.2 hPa | 0 mm | - | 631 W/m² | - |
| 1777659757 | 20.56° C | 71% | 1014.2 hPa | 0 mm | - | 610 W/m² | - |
| 1777659454 | 20.56° C | 71% | 1014.2 hPa | 0 mm | - | 668 W/m² | - |
| 1777659151 | 20.56° C | 71% | 1014.3 hPa | 0 mm | - | 658 W/m² | - |
| 1777658849 | 20.56° C | 70% | 1014.3 hPa | 0 mm | - | 674 W/m² | - |
| 1777658544 | 20° C | 71% | 1014.4 hPa | 0 mm | - | 674 W/m² | - |
| 1777658242 | 20° C | 72% | 1014.4 hPa | 0 mm | - | 687 W/m² | - |
| 1777657939 | 20° C | 72% | 1014.2 hPa | 0 mm | - | 471 W/m² | - |
| 1777657635 | 21.11° C | 71% | 1014.3 hPa | 0 mm | - | 298 W/m² | - |
| 1777657333 | 20.56° C | 70% | 1014.4 hPa | 0 mm | - | 739 W/m² | - |
| 1777657030 | 20.56° C | 70% | 1014.5 hPa | 0 mm | - | 664 W/m² | - |
| 1777656727 | 20° C | 72% | 1014.6 hPa | 0 mm | - | 636 W/m² | - |
| 1777656423 | 20° C | 73% | 1014.5 hPa | 0 mm | - | 668 W/m² | - |
| 1777656118 | 20° C | 73% | 1014.8 hPa | 0 mm | - | 436 W/m² | - |
| 1777655814 | 20° C | 72% | 1014.7 hPa | 0 mm | - | 633 W/m² | - |
| 1777655511 | 20.56° C | 71% | 1014.6 hPa | 0 mm | - | 329 W/m² | - |
| 1777655208 | 20° C | 73% | 1014.7 hPa | 0 mm | - | 597 W/m² | - |
| 1777654905 | 20° C | 72% | 1014.7 hPa | 0 mm | - | 276 W/m² | - |
| 1777654603 | 19.44° C | 73% | 1014.6 hPa | 0 mm | - | 576 W/m² | - |
| 1777654299 | 19.44° C | 74% | 1014.9 hPa | 0 mm | - | 491 W/m² | - |
| 1777653998 | 19.44° C | 73% | 1014.7 hPa | 0 mm | - | 499 W/m² | - |
| 1777653694 | 19.44° C | 75% | 1014.7 hPa | 0 mm | - | 481 W/m² | - |
* Rain latest hour (hover to see other rain measurements)
** Current wind speed in m/s (hover to see current wind gust speed)